Pollock, ID (83547)

10:55 AM PDT on August 24, 2016 (GMT -0700)
RAWS | | Change Station

Elev 2830 ft 43.56 °N, 116.21 °W | Updated 3 days ago

Clear
Clear
73 °F
Feels Like 73 °F
N
7
Wind Variable Wind from NNE
Gusts mph

Today
High -- | Low -- °F
--% Chance of Precip.
Yesterday
High -- | Low -- °F
Precip. -- in
Pressure 30.24 in
Visibility 10.0 miles
Clouds Clear
Dew Point 42 °F
Humidity 33%
Rainfall in
Snow Depth Not available.
5:58 AM 7:36 PM
Waning Gibbous, 55% visible
METAR KGIC 241735Z AUTO 08003KT 10SM CLR 19/03 A3024 RMK AO1
Pressure 30.24 in
Visibility 10.0 miles
Clouds Clear
Dew Point 42 °F
Humidity 33%
Rainfall in
Snow Depth Not available.
5:58 AM 7:36 PM
Waning Gibbous, 55% visible
METAR KGIC 241735Z AUTO 08003KT 10SM CLR 19/03 A3024 RMK AO1

10-Day Weather Forecast

Almanac

Astronomy

Aug. 24, 2016 Rise Set
Actual Time
Civil Twilight
Nautical Twilight
Astronomical Twilight
Moon
Length of Visible Light
Length of Day
Tomorrow will be .
, % of the Moon is Illuminated

Today's Extremes

State Highs State Lows

Community

WunderPhotos

Upload Photos

1,934,661 photos uploaded!

WunderBlog® & News

Nearby

Air Quality

  Air Quality AQ Index Pollutant
Not available.

Snow Depth

Station Depth Elevation

Earthquake Activity

City Distance Mag. Time & Date
Minimum magnitude displayed is 2.5.

Coastal Water Temperatures

Place Temperature

Stations

Nearby Weather Stations

Station Location Temp. Windchill Dew Point Humidity Wind Precip. Elev Updated Type
                   

Watches & Warnings

There are currently no watches in effect.